sensor_id;sensor_type;location;lat;lon;timestamp;pressure;altitude;pressure_sealevel;temperature;humidity
49393;BME280;35268;42.642;23.308;2022-09-02T00:01:49;93652.50;;;19.98;70.16
49393;BME280;35268;42.642;23.308;2022-09-02T00:04:21;93656.38;;;19.97;70.42
49393;BME280;35268;42.642;23.308;2022-09-02T00:06:49;93653.66;;;19.93;70.52
49393;BME280;35268;42.642;23.308;2022-09-02T00:09:18;93655.91;;;19.88;70.90
49393;BME280;35268;42.642;23.308;2022-09-02T00:11:46;93667.81;;;19.76;71.36
49393;BME280;35268;42.642;23.308;2022-09-02T00:14:22;93651.47;;;19.61;71.80
49393;BME280;35268;42.642;23.308;2022-09-02T00:16:48;93666.88;;;19.57;72.13
49393;BME280;35268;42.642;23.308;2022-09-02T00:19:22;93666.47;;;19.55;72.25
49393;BME280;35268;42.642;23.308;2022-09-02T00:21:49;93666.03;;;19.50;71.99
49393;BME280;35268;42.642;23.308;2022-09-02T00:24:15;93669.88;;;19.45;72.19
49393;BME280;35268;42.642;23.308;2022-09-02T00:26:42;93673.75;;;19.44;72.76
49393;BME280;35268;42.642;23.308;2022-09-02T00:29:08;93680.25;;;19.39;72.88
49393;BME280;35268;42.642;23.308;2022-09-02T00:31:34;93680.59;;;19.34;73.07
49393;BME280;35268;42.642;23.308;2022-09-02T00:34:02;93690.59;;;19.30;73.31
49393;BME280;35268;42.642;23.308;2022-09-02T00:36:27;93677.44;;;19.29;73.56
49393;BME280;35268;42.642;23.308;2022-09-02T00:38:53;93682.84;;;19.29;73.43
49393;BME280;35268;42.642;23.308;2022-09-02T00:41:22;93681.31;;;19.28;73.86
49393;BME280;35268;42.642;23.308;2022-09-02T00:43:52;93679.75;;;19.27;73.69
49393;BME280;35268;42.642;23.308;2022-09-02T00:46:20;93689.84;;;19.33;74.23
49393;BME280;35268;42.642;23.308;2022-09-02T00:49:08;93690.66;;;19.37;73.67
49393;BME280;35268;42.642;23.308;2022-09-02T00:54:14;93691.41;;;19.34;73.83
49393;BME280;35268;42.642;23.308;2022-09-02T00:56:42;93689.56;;;19.42;73.78
49393;BME280;35268;42.642;23.308;2022-09-02T00:59:12;93699.97;;;19.43;73.42
49393;BME280;35268;42.642;23.308;2022-09-02T01:01:39;93701.16;;;19.46;73.28
49393;BME280;35268;42.642;23.308;2022-09-02T01:04:05;93694.94;;;19.42;73.07
49393;BME280;35268;42.642;23.308;2022-09-02T01:06:31;93696.03;;;19.34;73.50
49393;BME280;35268;42.642;23.308;2022-09-02T01:09:03;93691.00;;;19.32;73.16
49393;BME280;35268;42.642;23.308;2022-09-02T01:11:37;93688.25;;;19.29;73.41
49393;BME280;35268;42.642;23.308;2022-09-02T01:14:03;93688.69;;;19.34;73.70
49393;BME280;35268;42.642;23.308;2022-09-02T01:16:35;93696.78;;;19.31;73.41
49393;BME280;35268;42.642;23.308;2022-09-02T01:19:06;93690.97;;;19.29;73.78
49393;BME280;35268;42.642;23.308;2022-09-02T01:21:34;93698.69;;;19.30;74.23
49393;BME280;35268;42.642;23.308;2022-09-02T01:24:00;93695.22;;;19.30;73.97
49393;BME280;35268;42.642;23.308;2022-09-02T01:26:26;93694.81;;;19.28;74.18
49393;BME280;35268;42.642;23.308;2022-09-02T01:28:51;93701.78;;;19.29;74.57
49393;BME280;35268;42.642;23.308;2022-09-02T01:31:16;93694.44;;;19.29;75.29
49393;BME280;35268;42.642;23.308;2022-09-02T01:33:42;93679.38;;;19.28;75.77
49393;BME280;35268;42.642;23.308;2022-09-02T01:36:08;93672.81;;;19.29;75.20
49393;BME280;35268;42.642;23.308;2022-09-02T01:38:33;93662.81;;;19.30;75.36
49393;BME280;35268;42.642;23.308;2022-09-02T01:40:59;93657.41;;;19.33;75.51
49393;BME280;35268;42.642;23.308;2022-09-02T01:43:26;93642.75;;;19.34;75.70
49393;BME280;35268;42.642;23.308;2022-09-02T01:45:54;93641.28;;;19.40;75.59
49393;BME280;35268;42.642;23.308;2022-09-02T01:48:20;93644.00;;;19.48;75.78
49393;BME280;35268;42.642;23.308;2022-09-02T01:50:49;93629.72;;;19.47;75.38
49393;BME280;35268;42.642;23.308;2022-09-02T01:53:16;93628.19;;;19.46;74.88
49393;BME280;35268;42.642;23.308;2022-09-02T01:55:42;93632.06;;;19.49;74.31
49393;BME280;35268;42.642;23.308;2022-09-02T01:58:10;93633.59;;;19.50;74.42
49393;BME280;35268;42.642;23.308;2022-09-02T02:00:35;93630.94;;;19.53;74.21
49393;BME280;35268;42.642;23.308;2022-09-02T02:03:01;93615.88;;;19.56;73.72
49393;BME280;35268;42.642;23.308;2022-09-02T02:05:28;93614.31;;;19.51;73.68
49393;BME280;35268;42.642;23.308;2022-09-02T02:07:54;93619.34;;;19.53;73.53
49393;BME280;35268;42.642;23.308;2022-09-02T02:10:20;93615.16;;;19.59;73.32
49393;BME280;35268;42.642;23.308;2022-09-02T02:12:46;93627.13;;;19.61;73.36
49393;BME280;35268;42.642;23.308;2022-09-02T02:15:15;93629.09;;;19.64;73.45
49393;BME280;35268;42.642;23.308;2022-09-02T02:17:41;93621.34;;;19.63;72.90
49393;BME280;35268;42.642;23.308;2022-09-02T02:20:09;93626.00;;;19.66;73.21
49393;BME280;35268;42.642;23.308;2022-09-02T02:22:35;93629.09;;;19.68;73.44
49393;BME280;35268;42.642;23.308;2022-09-02T02:25:00;93629.09;;;19.68;73.02
49393;BME280;35268;42.642;23.308;2022-09-02T02:27:26;93621.78;;;19.69;72.76
49393;BME280;35268;42.642;23.308;2022-09-02T02:29:51;93624.13;;;19.70;72.75
49393;BME280;35268;42.642;23.308;2022-09-02T02:32:17;93629.97;;;19.72;72.10
49393;BME280;35268;42.642;23.308;2022-09-02T02:34:44;93649.91;;;19.60;72.66
49393;BME280;35268;42.642;23.308;2022-09-02T02:37:10;93648.72;;;19.54;72.87
49393;BME280;35268;42.642;23.308;2022-09-02T02:39:40;93646.38;;;19.53;73.14
49393;BME280;35268;42.642;23.308;2022-09-02T02:42:06;93647.53;;;19.52;73.31
49393;BME280;35268;42.642;23.308;2022-09-02T02:44:32;93651.78;;;19.53;73.09
49393;BME280;35268;42.642;23.308;2022-09-02T02:46:59;93653.31;;;19.50;72.75
49393;BME280;35268;42.642;23.308;2022-09-02T02:49:25;93651.38;;;19.51;72.53
49393;BME280;35268;42.642;23.308;2022-09-02T02:51:51;93652.94;;;19.52;72.48
49393;BME280;35268;42.642;23.308;2022-09-02T02:54:18;93650.63;;;19.54;72.02
49393;BME280;35268;42.642;23.308;2022-09-02T02:56:44;93652.97;;;19.55;71.45
49393;BME280;35268;42.642;23.308;2022-09-02T02:59:09;93660.66;;;19.53;71.50
49393;BME280;35268;42.642;23.308;2022-09-02T03:01:35;93655.25;;;19.53;71.04
49393;BME280;35268;42.642;23.308;2022-09-02T03:04:00;93655.28;;;19.57;71.38
49393;BME280;35268;42.642;23.308;2022-09-02T03:06:25;93642.13;;;19.52;71.13
49393;BME280;35268;42.642;23.308;2022-09-02T03:08:51;93645.97;;;19.51;71.13
49393;BME280;35268;42.642;23.308;2022-09-02T03:11:18;93643.28;;;19.51;71.02
49393;BME280;35268;42.642;23.308;2022-09-02T03:13:47;93646.38;;;19.53;70.84
49393;BME280;35268;42.642;23.308;2022-09-02T03:16:13;93649.84;;;19.53;70.95
49393;BME280;35268;42.642;23.308;2022-09-02T03:18:38;93642.16;;;19.55;70.59
49393;BME280;35268;42.642;23.308;2022-09-02T03:21:07;93639.06;;;19.57;70.60
49393;BME280;35268;42.642;23.308;2022-09-02T03:23:33;93633.66;;;19.57;70.92
49393;BME280;35268;42.642;23.308;2022-09-02T03:25:58;93639.84;;;19.57;71.30
49393;BME280;35268;42.642;23.308;2022-09-02T03:28:24;93640.63;;;19.58;71.69
49393;BME280;35268;42.642;23.308;2022-09-02T03:30:49;93648.31;;;19.56;71.74
49393;BME280;35268;42.642;23.308;2022-09-02T03:33:15;93645.63;;;19.56;72.31
49393;BME280;35268;42.642;23.308;2022-09-02T03:35:42;93649.09;;;19.53;72.42
49393;BME280;35268;42.642;23.308;2022-09-02T03:38:08;93651.41;;;19.54;72.76
49393;BME280;35268;42.642;23.308;2022-09-02T03:40:34;93653.72;;;19.56;72.75
49393;BME280;35268;42.642;23.308;2022-09-02T03:42:59;93659.94;;;19.56;72.27
49393;BME280;35268;42.642;23.308;2022-09-02T03:45:25;93661.03;;;19.48;72.27
49393;BME280;35268;42.642;23.308;2022-09-02T03:47:50;93674.09;;;19.42;73.05
49393;BME280;35268;42.642;23.308;2022-09-02T03:50:26;93672.13;;;19.39;72.64
49393;BME280;35268;42.642;23.308;2022-09-02T03:52:54;93683.34;;;19.41;72.82
49393;BME280;35268;42.642;23.308;2022-09-02T03:55:21;93677.13;;;19.37;73.11
49393;BME280;35268;42.642;23.308;2022-09-02T03:57:47;93688.34;;;19.39;72.63
49393;BME280;35268;42.642;23.308;2022-09-02T04:00:14;93699.56;;;19.41;73.02
49393;BME280;35268;42.642;23.308;2022-09-02T04:02:41;93698.03;;;19.40;72.91
49393;BME280;35268;42.642;23.308;2022-09-02T04:05:07;93699.16;;;19.39;73.24
49393;BME280;35268;42.642;23.308;2022-09-02T04:07:33;93698.78;;;19.41;73.13
49393;BME280;35268;42.642;23.308;2022-09-02T04:09:59;93699.56;;;19.41;73.14
49393;BME280;35268;42.642;23.308;2022-09-02T04:12:25;93698.78;;;19.41;72.78
49393;BME280;35268;42.642;23.308;2022-09-02T04:14:50;93708.06;;;19.40;73.35
49393;BME280;35268;42.642;23.308;2022-09-02T04:17:16;93711.84;;;19.35;73.48
49393;BME280;35268;42.642;23.308;2022-09-02T04:19:41;93714.09;;;19.26;73.60
49393;BME280;35268;42.642;23.308;2022-09-02T04:22:07;93719.09;;;19.24;73.85
49393;BME280;35268;42.642;23.308;2022-09-02T04:24:33;93717.56;;;19.27;73.59
49393;BME280;35268;42.642;23.308;2022-09-02T04:26:59;93722.16;;;19.22;74.19
49393;BME280;35268;42.642;23.308;2022-09-02T04:29:24;93721.41;;;19.22;74.29
49393;BME280;35268;42.642;23.308;2022-09-02T04:31:51;93716.72;;;19.19;74.08
49393;BME280;35268;42.642;23.308;2022-09-02T04:34:17;93721.00;;;19.20;74.29
49393;BME280;35268;42.642;23.308;2022-09-02T04:36:43;93722.94;;;19.23;74.52
49393;BME280;35268;42.642;23.308;2022-09-02T04:39:08;93719.91;;;19.28;74.25
49393;BME280;35268;42.642;23.308;2022-09-02T04:41:34;93726.09;;;19.29;74.50
49393;BME280;35268;42.642;23.308;2022-09-02T04:44:01;93734.94;;;19.26;74.21
49393;BME280;35268;42.642;23.308;2022-09-02T04:46:27;93735.31;;;19.24;74.31
49393;BME280;35268;42.642;23.308;2022-09-02T04:48:53;93734.09;;;19.18;74.21
49393;BME280;35268;42.642;23.308;2022-09-02T04:51:21;93739.09;;;19.16;74.56
49393;BME280;35268;42.642;23.308;2022-09-02T04:53:48;93733.69;;;19.16;74.52
49393;BME280;35268;42.642;23.308;2022-09-02T04:56:17;93733.31;;;19.17;74.68
49393;BME280;35268;42.642;23.308;2022-09-02T04:58:43;93738.34;;;19.19;74.64
49393;BME280;35268;42.642;23.308;2022-09-02T05:01:14;93743.41;;;19.24;74.65
49393;BME280;35268;42.642;23.308;2022-09-02T05:03:41;93729.94;;;19.28;74.59
49393;BME280;35268;42.642;23.308;2022-09-02T05:06:09;93733.41;;;19.28;74.68
49393;BME280;35268;42.642;23.308;2022-09-02T05:08:35;93733.06;;;19.30;74.71
49393;BME280;35268;42.642;23.308;2022-09-02T05:11:12;93739.69;;;19.36;74.66
49393;BME280;35268;42.642;23.308;2022-09-02T05:13:42;93746.31;;;19.42;74.42
49393;BME280;35268;42.642;23.308;2022-09-02T05:16:07;93750.59;;;19.47;74.00
49393;BME280;35268;42.642;23.308;2022-09-02T05:18:33;93740.59;;;19.51;74.02
49393;BME280;35268;42.642;23.308;2022-09-02T05:20:58;93750.31;;;19.59;73.86
49393;BME280;35268;42.642;23.308;2022-09-02T05:23:24;93751.13;;;19.63;73.83
49393;BME280;35268;42.642;23.308;2022-09-02T05:25:49;93755.03;;;19.69;73.59
49393;BME280;35268;42.642;23.308;2022-09-02T05:28:15;93745.06;;;19.73;73.52
49393;BME280;35268;42.642;23.308;2022-09-02T05:30:41;93750.88;;;19.75;72.89
49393;BME280;35268;42.642;23.308;2022-09-02T05:33:08;93754.38;;;19.79;72.84
49393;BME280;35268;42.642;23.308;2022-09-02T05:35:39;93753.25;;;19.84;72.43
49393;BME280;35268;42.642;23.308;2022-09-02T05:38:05;93749.03;;;19.87;71.74
49393;BME280;35268;42.642;23.308;2022-09-02T05:40:30;93744.44;;;19.91;71.27
49393;BME280;35268;42.642;23.308;2022-09-02T05:42:55;93739.44;;;19.96;70.83
49393;BME280;35268;42.642;23.308;2022-09-02T05:45:21;93744.53;;;20.05;70.25
49393;BME280;35268;42.642;23.308;2022-09-02T05:47:48;93734.53;;;20.13;69.81
49393;BME280;35268;42.642;23.308;2022-09-02T05:50:14;93733.81;;;20.23;69.65
49393;BME280;35268;42.642;23.308;2022-09-02T05:52:40;93733.09;;;20.30;69.50
49393;BME280;35268;42.642;23.308;2022-09-02T05:55:06;93728.91;;;20.39;69.34
49393;BME280;35268;42.642;23.308;2022-09-02T05:57:32;93728.16;;;20.46;68.89
49393;BME280;35268;42.642;23.308;2022-09-02T05:59:57;93732.47;;;20.54;68.78
49393;BME280;35268;42.642;23.308;2022-09-02T06:02:23;93730.97;;;20.60;67.96
49393;BME280;35268;42.642;23.308;2022-09-02T06:04:50;93731.75;;;20.64;67.35
49393;BME280;35268;42.642;23.308;2022-09-02T06:07:18;93723.25;;;20.70;66.94
49393;BME280;35268;42.642;23.308;2022-09-02T06:09:45;93728.75;;;20.80;66.08
49393;BME280;35268;42.642;23.308;2022-09-02T06:12:12;93726.03;;;20.84;66.11
49393;BME280;35268;42.642;23.308;2022-09-02T06:14:38;93726.81;;;20.88;66.07
49393;BME280;35268;42.642;23.308;2022-09-02T06:17:04;93734.59;;;20.93;65.63
49393;BME280;35268;42.642;23.308;2022-09-02T06:19:30;93722.56;;;20.94;65.24
49393;BME280;35268;42.642;23.308;2022-09-02T06:21:57;93731.91;;;20.97;65.61
49393;BME280;35268;42.642;23.308;2022-09-02T06:24:23;93738.47;;;20.99;65.28
49393;BME280;35268;42.642;23.308;2022-09-02T06:26:49;93738.50;;;21.03;65.18
49393;BME280;35268;42.642;23.308;2022-09-02T06:29:15;93748.56;;;21.06;65.06
49393;BME280;35268;42.642;23.308;2022-09-02T06:31:43;93741.63;;;21.09;64.89
49393;BME280;35268;42.642;23.308;2022-09-02T06:34:10;93742.00;;;21.11;65.18
49393;BME280;35268;42.642;23.308;2022-09-02T06:36:38;93744.34;;;21.16;65.18
49393;BME280;35268;42.642;23.308;2022-09-02T06:39:04;93752.09;;;21.17;65.26
49393;BME280;35268;42.642;23.308;2022-09-02T06:41:31;93745.91;;;21.17;65.45
49393;BME280;35268;42.642;23.308;2022-09-02T06:44:00;93739.31;;;21.18;65.40
49393;BME280;35268;42.642;23.308;2022-09-02T06:46:32;93745.91;;;21.17;65.65
49393;BME280;35268;42.642;23.308;2022-09-02T06:49:19;93756.75;;;21.24;65.59
49393;BME280;35268;42.642;23.308;2022-09-02T06:51:46;93755.22;;;21.23;65.57
49393;BME280;35268;42.642;23.308;2022-09-02T06:54:15;93759.47;;;21.24;64.95
49393;BME280;35268;42.642;23.308;2022-09-02T06:56:42;93763.72;;;21.25;64.90
49393;BME280;35268;42.642;23.308;2022-09-02T06:59:08;93763.72;;;21.25;64.81
49393;BME280;35268;42.642;23.308;2022-09-02T07:01:34;93766.84;;;21.27;64.96
49393;BME280;35268;42.642;23.308;2022-09-02T07:04:01;93766.44;;;21.32;65.21
49393;BME280;35268;42.642;23.308;2022-09-02T07:06:48;93771.50;;;21.37;65.19
49393;BME280;35268;42.642;23.308;2022-09-02T07:09:16;93769.56;;;21.38;65.35
49393;BME280;35268;42.642;23.308;2022-09-02T07:11:42;93764.53;;;21.40;65.34
49393;BME280;35268;42.642;23.308;2022-09-02T07:14:19;93778.53;;;21.46;65.39
49393;BME280;35268;42.642;23.308;2022-09-02T07:16:48;93766.16;;;21.52;65.76
49393;BME280;35268;42.642;23.308;2022-09-02T07:19:14;93775.03;;;21.59;66.08
49393;BME280;35268;42.642;23.308;2022-09-02T07:21:40;93768.88;;;21.66;65.76
49393;BME280;35268;42.642;23.308;2022-09-02T07:24:07;93778.56;;;21.74;65.56
49393;BME280;35268;42.642;23.308;2022-09-02T07:26:33;93777.81;;;21.88;65.29
49393;BME280;35268;42.642;23.308;2022-09-02T07:28:59;93781.69;;;22.01;64.20
49393;BME280;35268;42.642;23.308;2022-09-02T07:31:24;93778.97;;;22.09;62.32
49393;BME280;35268;42.642;23.308;2022-09-02T07:33:51;93773.53;;;22.12;62.32
49393;BME280;35268;42.642;23.308;2022-09-02T07:36:17;93770.44;;;22.17;62.06
49393;BME280;35268;42.642;23.308;2022-09-02T07:38:45;93777.06;;;22.23;62.05
49393;BME280;35268;42.642;23.308;2022-09-02T07:41:11;93773.16;;;22.32;61.41
49393;BME280;35268;42.642;23.308;2022-09-02T07:43:38;93760.38;;;22.39;60.70
49393;BME280;35268;42.642;23.308;2022-09-02T07:46:05;93763.84;;;22.47;60.43
49393;BME280;35268;42.642;23.308;2022-09-02T07:48:32;93771.97;;;22.54;60.11
49393;BME280;35268;42.642;23.308;2022-09-02T07:50:58;93775.44;;;22.58;59.74
49393;BME280;35268;42.642;23.308;2022-09-02T07:53:24;93778.16;;;22.62;58.85
49393;BME280;35268;42.642;23.308;2022-09-02T07:55:50;93770.03;;;22.62;58.52
49393;BME280;35268;42.642;23.308;2022-09-02T07:58:17;93772.31;;;22.67;58.33
49393;BME280;35268;42.642;23.308;2022-09-02T08:00:44;93790.94;;;22.69;58.32
49393;BME280;35268;42.642;23.308;2022-09-02T08:03:11;93783.97;;;22.68;58.55
49393;BME280;35268;42.642;23.308;2022-09-02T08:05:38;93791.75;;;22.66;58.79
49393;BME280;35268;42.642;23.308;2022-09-02T08:08:05;93791.72;;;22.69;59.03
49393;BME280;35268;42.642;23.308;2022-09-02T08:10:31;93792.91;;;22.68;58.69
49393;BME280;35268;42.642;23.308;2022-09-02T08:12:58;93797.16;;;22.69;58.44
49393;BME280;35268;42.642;23.308;2022-09-02T08:15:26;93799.47;;;22.67;58.22
49393;BME280;35268;42.642;23.308;2022-09-02T08:17:56;93791.38;;;22.60;58.24
49393;BME280;35268;42.642;23.308;2022-09-02T08:20:21;93792.53;;;22.55;57.86
49393;BME280;35268;42.642;23.308;2022-09-02T08:22:47;93793.69;;;22.54;58.08
49393;BME280;35268;42.642;23.308;2022-09-02T08:25:12;93796.44;;;22.47;58.67
49393;BME280;35268;42.642;23.308;2022-09-02T08:27:38;93799.91;;;22.44;58.77
49393;BME280;35268;42.642;23.308;2022-09-02T08:30:05;93792.94;;;22.43;58.08
49393;BME280;35268;42.642;23.308;2022-09-02T08:32:34;93798.00;;;22.34;58.34
49393;BME280;35268;42.642;23.308;2022-09-02T08:34:59;93801.84;;;22.22;59.16
49393;BME280;35268;42.642;23.308;2022-09-02T08:37:28;93792.16;;;22.14;60.04
49393;BME280;35268;42.642;23.308;2022-09-02T08:39:53;93793.31;;;22.13;60.31
49393;BME280;35268;42.642;23.308;2022-09-02T08:42:28;93788.28;;;22.15;60.36
49393;BME280;35268;42.642;23.308;2022-09-02T08:45:08;93794.88;;;22.07;59.92
49393;BME280;35268;42.642;23.308;2022-09-02T08:47:36;93791.38;;;22.13;59.68
49393;BME280;35268;42.642;23.308;2022-09-02T08:50:15;93794.47;;;22.15;60.50
49393;BME280;35268;42.642;23.308;2022-09-02T08:55:18;93783.63;;;22.19;61.08
49393;BME280;35268;42.642;23.308;2022-09-02T08:57:45;93783.25;;;22.24;60.87
49393;BME280;35268;42.642;23.308;2022-09-02T09:00:11;93781.69;;;22.30;60.44
49393;BME280;35268;42.642;23.308;2022-09-02T09:05:39;93777.81;;;22.49;60.25
49393;BME280;35268;42.642;23.308;2022-09-02T09:10:59;93781.28;;;22.57;59.35
49393;BME280;35268;42.642;23.308;2022-09-02T09:21:36;93775.41;;;22.80;59.99
49393;BME280;35268;42.642;23.308;2022-09-02T09:24:29;93779.25;;;22.90;58.92
49393;BME280;35268;42.642;23.308;2022-09-02T09:26:52;93765.25;;;23.06;59.64
49393;BME280;35268;42.642;23.308;2022-09-02T09:29:19;93759.72;;;23.20;59.36
49393;BME280;35268;42.642;23.308;2022-09-02T09:31:49;93766.28;;;23.37;57.87
49393;BME280;35268;42.642;23.308;2022-09-02T09:34:17;93764.22;;;23.55;56.39
49393;BME280;35268;42.642;23.308;2022-09-02T09:36:44;93767.97;;;23.76;56.54
49393;BME280;35268;42.642;23.308;2022-09-02T09:39:20;93761.25;;;23.95;55.73
49393;BME280;35268;42.642;23.308;2022-09-02T09:41:47;93758.41;;;24.09;55.31
49393;BME280;35268;42.642;23.308;2022-09-02T09:44:39;93764.56;;;24.20;53.62
49393;BME280;35268;42.642;23.308;2022-09-02T09:47:07;93759.22;;;24.06;53.22
49393;BME280;35268;42.642;23.308;2022-09-02T09:49:34;93747.00;;;23.73;54.82
49393;BME280;35268;42.642;23.308;2022-09-02T09:51:59;93758.81;;;23.44;55.13
49393;BME280;35268;42.642;23.308;2022-09-02T09:54:26;93766.34;;;23.22;56.07
49393;BME280;35268;42.642;23.308;2022-09-02T09:56:53;93763.69;;;23.01;56.91
49393;BME280;35268;42.642;23.308;2022-09-02T09:59:41;93760.19;;;23.00;57.06
49393;BME280;35268;42.642;23.308;2022-09-02T10:02:24;93769.19;;;22.83;57.64
49393;BME280;35268;42.642;23.308;2022-09-02T10:04:52;93771.09;;;22.90;57.51
49393;BME280;35268;42.642;23.308;2022-09-02T10:07:38;93770.31;;;22.96;57.76
49393;BME280;35268;42.642;23.308;2022-09-02T10:10:21;93765.28;;;23.02;57.49
49393;BME280;35268;42.642;23.308;2022-09-02T10:12:50;93767.56;;;23.03;57.04
49393;BME280;35268;42.642;23.308;2022-09-02T10:15:23;93760.59;;;23.02;56.97
49393;BME280;35268;42.642;23.308;2022-09-02T10:18:21;93766.78;;;23.10;57.66
49393;BME280;35268;42.642;23.308;2022-09-02T10:20:56;93757.44;;;23.18;56.33
49393;BME280;35268;42.642;23.308;2022-09-02T10:23:45;93763.56;;;23.33;56.29
49393;BME280;35268;42.642;23.308;2022-09-02T10:26:39;93760.41;;;23.38;56.16
49393;BME280;35268;42.642;23.308;2022-09-02T10:37:20;93765.06;;;23.41;56.19
49393;BME280;35268;42.642;23.308;2022-09-02T10:40:12;93770.53;;;23.38;56.62
49393;BME280;35268;42.642;23.308;2022-09-02T10:43:05;93765.41;;;23.51;57.48
49393;BME280;35268;42.642;23.308;2022-09-02T10:45:44;93769.59;;;23.66;55.28
49393;BME280;35268;42.642;23.308;2022-09-02T10:50:54;93758.69;;;23.73;56.70
49393;BME280;35268;42.642;23.308;2022-09-02T10:58:57;93760.38;;;24.54;54.17
49393;BME280;35268;42.642;23.308;2022-09-02T11:01:27;93762.09;;;24.75;54.29
49393;BME280;35268;42.642;23.308;2022-09-02T11:06:54;93758.69;;;24.67;52.07
49393;BME280;35268;42.642;23.308;2022-09-02T11:14:34;93738.53;;;24.95;52.85
49393;BME280;35268;42.642;23.308;2022-09-02T11:17:22;93736.44;;;25.07;51.56
49393;BME280;35268;42.642;23.308;2022-09-02T11:20:34;93742.09;;;25.23;52.18
49393;BME280;35268;42.642;23.308;2022-09-02T11:22:58;93744.84;;;25.50;50.91
49393;BME280;35268;42.642;23.308;2022-09-02T11:25:37;93738.38;;;25.68;50.50
49393;BME280;35268;42.642;23.308;2022-09-02T11:31:04;93733.75;;;26.15;49.36
49393;BME280;35268;42.642;23.308;2022-09-02T11:33:49;93735.91;;;26.28;49.24
49393;BME280;35268;42.642;23.308;2022-09-02T11:36:16;93730.09;;;26.26;47.17
49393;BME280;35268;42.642;23.308;2022-09-02T11:41:27;93717.13;;;26.30;49.02
49393;BME280;35268;42.642;23.308;2022-09-02T11:52:09;93699.59;;;26.91;46.90
49393;BME280;35268;42.642;23.308;2022-09-02T11:54:44;93697.88;;;26.60;46.65
49393;BME280;35268;42.642;23.308;2022-09-02T11:57:14;93700.16;;;26.62;47.50
49393;BME280;35268;42.642;23.308;2022-09-02T12:02:39;93715.44;;;26.59;46.34
49393;BME280;35268;42.642;23.308;2022-09-02T12:07:59;93714.00;;;26.08;48.76
49393;BME280;35268;42.642;23.308;2022-09-02T12:13:39;93720.91;;;25.61;49.61
49393;BME280;35268;42.642;23.308;2022-09-02T12:18:37;93713.09;;;25.36;50.74
49393;BME280;35268;42.642;23.308;2022-09-02T12:21:06;93707.78;;;25.26;50.29
49393;BME280;35268;42.642;23.308;2022-09-02T12:28:44;93698.53;;;25.16;51.63
49393;BME280;35268;42.642;23.308;2022-09-02T12:44:30;93674.34;;;25.18;51.35
49393;BME280;35268;42.642;23.308;2022-09-02T12:49:51;93674.13;;;25.05;52.80
49393;BME280;35268;42.642;23.308;2022-09-02T12:57:44;93665.75;;;24.58;52.77
49393;BME280;35268;42.642;23.308;2022-09-02T13:01:21;93668.50;;;24.54;52.71
49393;BME280;35268;42.642;23.308;2022-09-02T13:03:40;93666.50;;;24.62;54.38
49393;BME280;35268;42.642;23.308;2022-09-02T13:14:52;93658.72;;;24.60;53.43
49393;BME280;35268;42.642;23.308;2022-09-02T13:17:25;93669.72;;;24.53;53.80
49393;BME280;35268;42.642;23.308;2022-09-02T13:26:11;93676.53;;;24.31;56.72
49393;BME280;35268;42.642;23.308;2022-09-02T13:31:40;93671.28;;;24.13;60.64
49393;BME280;35268;42.642;23.308;2022-09-02T13:34:11;93679.47;;;24.09;61.70
49393;BME280;35268;42.642;23.308;2022-09-02T13:36:45;93674.91;;;23.99;62.05
49393;BME280;35268;42.642;23.308;2022-09-02T13:39:23;93676.94;;;23.88;63.29
49393;BME280;35268;42.642;23.308;2022-09-02T13:41:49;93679.78;;;23.73;64.78
49393;BME280;35268;42.642;23.308;2022-09-02T13:44:26;93668.19;;;23.58;65.34
49393;BME280;35268;42.642;23.308;2022-09-02T13:47:00;93673.34;;;23.46;67.76
49393;BME280;35268;42.642;23.308;2022-09-02T13:49:31;93680.44;;;23.32;66.58
49393;BME280;35268;42.642;23.308;2022-09-02T13:51:58;93673.56;;;23.10;67.25
49393;BME280;35268;42.642;23.308;2022-09-02T13:54:36;93688.03;;;22.92;68.59
49393;BME280;35268;42.642;23.308;2022-09-02T13:57:10;93697.00;;;22.82;68.44
49393;BME280;35268;42.642;23.308;2022-09-02T13:59:39;93689.34;;;22.55;66.31
49393;BME280;35268;42.642;23.308;2022-09-02T14:07:52;93693.25;;;22.18;67.96
49393;BME280;35268;42.642;23.308;2022-09-02T14:10:22;93694.81;;;22.12;69.48
49393;BME280;35268;42.642;23.308;2022-09-02T14:12:48;93705.31;;;22.03;70.30
49393;BME280;35268;42.642;23.308;2022-09-02T14:15:21;93712.69;;;21.77;70.78
49393;BME280;35268;42.642;23.308;2022-09-02T14:18:15;93724.63;;;21.40;72.13
49393;BME280;35268;42.642;23.308;2022-09-02T14:21:20;93731.19;;;21.11;72.69
49393;BME280;35268;42.642;23.308;2022-09-02T14:23:51;93738.06;;;20.94;75.51
49393;BME280;35268;42.642;23.308;2022-09-02T14:26:35;93741.16;;;20.89;76.68
49393;BME280;35268;42.642;23.308;2022-09-02T14:29:04;93728.00;;;20.87;76.92
49393;BME280;35268;42.642;23.308;2022-09-02T14:31:30;93724.16;;;20.95;76.78
49393;BME280;35268;42.642;23.308;2022-09-02T14:33:59;93734.59;;;20.93;75.64
49393;BME280;35268;42.642;23.308;2022-09-02T14:36:36;93736.50;;;20.89;74.90
49393;BME280;35268;42.642;23.308;2022-09-02T14:39:16;93748.88;;;20.87;73.34
49393;BME280;35268;42.642;23.308;2022-09-02T14:41:51;93739.56;;;20.77;74.11
49393;BME280;35268;42.642;23.308;2022-09-02T14:44:31;93737.19;;;20.72;74.32
49393;BME280;35268;42.642;23.308;2022-09-02T14:47:02;93734.88;;;20.70;74.13
49393;BME280;35268;42.642;23.308;2022-09-02T14:49:31;93746.13;;;20.72;74.66
49393;BME280;35268;42.642;23.308;2022-09-02T14:51:59;93755.41;;;20.75;75.43
49393;BME280;35268;42.642;23.308;2022-09-02T14:54:53;93757.31;;;20.71;75.93
49393;BME280;35268;42.642;23.308;2022-09-02T14:59:48;93757.16;;;20.49;75.99
49393;BME280;35268;42.642;23.308;2022-09-02T15:02:29;93751.03;;;20.56;75.80
49393;BME280;35268;42.642;23.308;2022-09-02T15:05:03;93750.75;;;20.68;76.05